Time;durP1;ratioP1;P1;durP2;ratioP2;P2;SDS_P1;SDS_P2;PMS_P1;PMS_P2;Temp;Humidity;BMP_temperature;BMP_pressure;BME280_temperature;BME280_humidity;BME280_pressure;Samples;Min_cycle;Max_cycle;Signal;HPM_P1;HPM_P2
2021/06/01 00:00:40;;;;;;;7.10;3.80;;;;;;;12.52;53.76;98918.81;5075562;28;20041;-91
2021/06/01 00:03:06;;;;;;;6.60;3.60;;;;;;;12.49;53.91;98930.47;5079563;28;20043;-91
2021/06/01 00:05:34;;;;;;;6.53;3.65;;;;;;;12.34;54.42;98925.63;5084704;28;20090;-90
2021/06/01 00:07:59;;;;;;;5.88;3.67;;;;;;;12.27;54.68;98930.28;5076478;28;20131;-90
2021/06/01 00:10:25;;;;;;;4.88;3.50;;;;;;;12.11;55.38;98927.22;5088889;28;20119;-90
2021/06/01 00:12:51;;;;;;;6.30;3.75;;;;;;;12.15;55.75;98932.47;5081399;28;20450;-91
2021/06/01 00:15:17;;;;;;;5.28;3.70;;;;;;;12.12;56.38;98933.41;5074387;28;20041;-91
2021/06/01 00:17:43;;;;;;;5.82;3.65;;;;;;;12.08;56.29;98935.31;5081230;28;20551;-90
2021/06/01 00:23:08;;;;;;;5.68;3.85;;;;;;;11.92;57.35;98950.00;5103918;27;20861;-93
2021/06/01 00:25:34;;;;;;;6.38;3.78;;;;;;;11.78;57.58;98952.19;5061787;28;20081;-92
2021/06/01 00:27:59;;;;;;;6.13;3.78;;;;;;;11.75;56.83;98946.94;5065681;28;20064;-92
2021/06/01 00:30:25;;;;;;;6.78;4.03;;;;;;;11.86;56.04;98950.16;5070504;28;20393;-91
2021/06/01 00:32:51;;;;;;;6.68;4.28;;;;;;;11.83;56.66;98945.78;5058220;28;20051;-93
2021/06/01 00:35:17;;;;;;;6.45;4.00;;;;;;;11.90;55.60;98944.72;5059205;28;20038;-92
2021/06/01 00:37:43;;;;;;;6.60;3.78;;;;;;;11.88;55.20;98937.69;5061862;28;20864;-91
2021/06/01 00:40:11;;;;;;;5.30;3.65;;;;;;;12.06;55.48;98952.28;5056332;28;20056;-91
2021/06/01 00:42:37;;;;;;;6.10;3.97;;;;;;;12.08;55.14;98956.63;5058560;28;20037;-92
2021/06/01 00:45:04;;;;;;;7.97;4.20;;;;;;;11.92;55.55;98942.00;5061510;28;20051;-92
2021/06/01 00:47:29;;;;;;;5.75;4.15;;;;;;;11.90;56.73;98954.50;5064092;28;20068;-91
2021/06/01 00:49:55;;;;;;;5.78;3.72;;;;;;;11.85;57.29;98967.06;5062386;28;20091;-90
2021/06/01 00:52:21;;;;;;;5.88;3.95;;;;;;;11.62;57.59;98978.38;5059064;28;20033;-91
2021/06/01 00:54:47;;;;;;;5.68;3.78;;;;;;;11.47;58.18;98966.34;5064591;28;20494;-95
2021/06/01 00:57:14;;;;;;;5.25;3.90;;;;;;;11.28;59.11;98971.31;5060383;28;20071;-92
2021/06/01 00:59:40;;;;;;;6.93;4.25;;;;;;;11.06;59.23;98958.56;5055769;28;20483;-91
2021/06/01 01:02:06;;;;;;;6.15;4.28;;;;;;;11.07;59.44;98978.06;5055045;28;20046;-94
2021/06/01 01:04:33;;;;;;;5.15;3.90;;;;;;;11.02;59.73;98979.97;5064775;28;20044;-91
2021/06/01 01:07:14;;;;;;;7.05;3.78;;;;;;;11.01;59.66;98962.25;5054747;28;20041;-91
2021/06/01 01:09:43;;;;;;;5.88;3.90;;;;;;;10.91;59.42;98956.31;5062437;28;20120;-92
2021/06/01 01:12:17;;;;;;;6.50;4.70;;;;;;;11.06;58.43;98957.66;5060550;28;20518;-91
2021/06/01 01:14:47;;;;;;;5.85;3.72;;;;;;;11.07;58.23;98973.59;5061968;28;20048;-93
2021/06/01 01:17:17;;;;;;;6.47;3.83;;;;;;;10.94;58.76;98960.66;5054804;28;20498;-93
2021/06/01 01:20:07;;;;;;;6.18;3.42;;;;;;;11.03;59.25;98976.41;5055664;28;20091;-92
2021/06/01 01:22:35;;;;;;;8.18;3.72;;;;;;;10.94;59.65;98976.63;5062611;28;20084;-91
2021/06/01 01:25:09;;;;;;;7.03;3.72;;;;;;;10.82;59.48;98986.69;5064613;28;20148;-92
2021/06/01 01:27:51;;;;;;;5.45;4.05;;;;;;;10.82;59.89;98989.34;5061706;28;20060;-93
2021/06/01 01:30:19;;;;;;;6.63;4.00;;;;;;;10.73;59.85;98986.00;5057693;28;20516;-95
2021/06/01 01:32:53;;;;;;;5.20;3.47;;;;;;;10.77;59.80;98988.56;5061762;28;20125;-94
2021/06/01 01:35:22;;;;;;;5.97;3.92;;;;;;;10.75;59.95;99000.16;5049660;28;20044;-92
2021/06/01 01:37:49;;;;;;;6.05;3.90;;;;;;;10.70;59.80;98997.59;5049747;28;20037;-91
2021/06/01 01:40:16;;;;;;;7.70;4.38;;;;;;;10.63;60.14;98983.59;5053864;28;20132;-94
2021/06/01 01:42:49;;;;;;;6.22;3.75;;;;;;;10.72;60.12;99005.56;5048019;28;20059;-91
2021/06/01 01:45:19;;;;;;;6.47;4.18;;;;;;;10.54;61.34;98989.13;5033654;28;20136;-93
2021/06/01 01:50:41;;;;;;;6.05;3.80;;;;;;;10.59;61.30;99008.50;5154765;27;20384;-93
2021/06/01 01:55:56;;;;;;;5.05;3.83;;;;;;;10.29;61.54;98999.44;5120000;28;20047;-93
2021/06/01 01:58:23;;;;;;;6.60;3.92;;;;;;;10.21;61.20;98996.03;5117845;28;20126;-92
2021/06/01 02:00:49;;;;;;;5.43;3.90;;;;;;;10.15;61.54;98997.06;5126364;27;20048;-92
2021/06/01 02:03:19;;;;;;;5.60;4.03;;;;;;;10.15;61.69;99006.78;5117178;28;20035;-92
2021/06/01 02:05:47;;;;;;;5.22;3.60;;;;;;;10.14;62.35;99010.38;5123001;28;20430;-93
2021/06/01 02:08:13;;;;;;;6.50;4.03;;;;;;;9.98;62.71;99009.81;5124626;28;20046;-92
2021/06/01 02:10:38;;;;;;;5.93;4.20;;;;;;;10.01;62.66;99007.97;5124787;27;20049;-93
2021/06/01 02:13:04;;;;;;;5.32;3.50;;;;;;;10.04;62.03;99010.56;5128873;27;20047;-93
2021/06/01 02:15:31;;;;;;;6.35;4.05;;;;;;;10.14;61.86;99005.91;5124676;27;20039;-93
2021/06/01 02:17:57;;;;;;;6.22;4.43;;;;;;;10.30;61.50;99003.84;5124034;28;20031;-91
2021/06/01 02:20:23;;;;;;;5.97;4.18;;;;;;;10.39;60.67;98982.38;5124201;28;20038;-93
2021/06/01 02:26:00;;;;;;;6.45;4.22;;;;;;;10.68;60.73;98999.44;5091347;27;20362;-91
2021/06/01 02:28:31;;;;;;;7.22;4.20;;;;;;;10.63;61.07;99002.19;5090880;28;20044;-91
2021/06/01 02:31:02;;;;;;;6.22;4.53;;;;;;;10.48;62.88;99003.44;5089407;28;20043;-92
2021/06/01 02:33:31;;;;;;;7.15;4.63;;;;;;;10.38;64.01;99001.00;5090676;28;20040;-92
2021/06/01 02:35:58;;;;;;;7.05;4.53;;;;;;;10.36;64.40;99011.66;5090878;28;20539;-94
2021/06/01 02:38:24;;;;;;;8.95;4.40;;;;;;;10.36;64.05;99016.13;5087905;28;20044;-93
2021/06/01 02:40:52;;;;;;;6.63;4.70;;;;;;;10.40;63.74;99015.16;5091009;28;21306;-90
2021/06/01 02:43:20;;;;;;;7.30;5.15;;;;;;;10.15;64.14;98997.06;5085628;28;20043;-93
2021/06/01 02:45:47;;;;;;;5.65;4.20;;;;;;;10.06;64.32;98998.13;5090295;28;20389;-92
2021/06/01 02:48:14;;;;;;;6.57;4.20;;;;;;;9.86;64.25;98982.59;5090982;28;20461;-92
2021/06/01 02:50:42;;;;;;;6.03;3.95;;;;;;;9.88;63.58;98994.06;5091288;28;20040;-94
2021/06/01 02:53:09;;;;;;;5.97;4.15;;;;;;;9.95;63.51;98992.16;5090988;28;20043;-93
2021/06/01 02:55:35;;;;;;;5.50;3.97;;;;;;;10.13;63.04;98997.97;5091323;28;20039;-92
2021/06/01 02:58:02;;;;;;;5.90;4.22;;;;;;;9.87;63.59;98981.69;5090755;28;20122;-91
2021/06/01 03:00:29;;;;;;;6.35;4.00;;;;;;;9.84;63.73;98979.09;5089576;28;20082;-91
2021/06/01 03:02:55;;;;;;;7.35;4.13;;;;;;;9.92;62.04;98981.59;5091177;28;20044;-92
2021/06/01 03:05:28;;;;;;;6.00;3.90;;;;;;;9.95;62.53;98965.56;5091250;28;20363;-94
2021/06/01 03:07:56;;;;;;;6.72;4.05;;;;;;;10.17;61.78;98983.72;5090893;28;20497;-92
2021/06/01 03:10:24;;;;;;;6.80;4.20;;;;;;;9.99;61.60;98963.75;5091229;28;20119;-92
2021/06/01 03:12:56;;;;;;;7.30;4.30;;;;;;;10.00;61.74;98961.06;5090579;28;20417;-93
2021/06/01 03:15:23;;;;;;;5.85;4.00;;;;;;;10.15;62.30;98990.84;5090211;28;20036;-92
2021/06/01 03:17:50;;;;;;;7.80;5.18;;;;;;;9.92;63.27;98984.25;5090623;28;20440;-93
2021/06/01 03:20:16;;;;;;;7.82;4.55;;;;;;;9.80;63.39;98969.47;5090105;28;20040;-90
2021/06/01 03:22:42;;;;;;;6.30;4.35;;;;;;;9.83;63.57;98976.47;5090418;28;20371;-93
2021/06/01 03:25:09;;;;;;;5.63;4.00;;;;;;;9.90;62.94;98978.09;5090292;28;20048;-93
2021/06/01 03:27:35;;;;;;;7.50;4.35;;;;;;;9.77;63.37;98955.34;5090617;28;20128;-93
2021/06/01 03:30:02;;;;;;;7.25;4.40;;;;;;;9.79;63.42;98961.50;5089867;28;20135;-92
2021/06/01 03:32:27;;;;;;;6.13;4.75;;;;;;;9.88;63.36;98978.13;5090249;28;20569;-92
2021/06/01 03:34:55;;;;;;;6.57;4.60;;;;;;;9.78;62.84;98967.72;5090227;28;20082;-91
2021/06/01 03:37:20;;;;;;;6.07;4.05;;;;;;;9.85;63.07;98974.66;5076471;28;20437;-93
2021/06/01 03:39:46;;;;;;;6.88;4.53;;;;;;;9.94;62.99;98973.59;5076870;28;20048;-93
2021/06/01 03:42:12;;;;;;;7.00;4.40;;;;;;;9.88;62.87;98966.63;5076715;28;20101;-93
2021/06/01 03:44:39;;;;;;;6.72;4.03;;;;;;;9.92;62.95;98976.28;5076437;28;20040;-94
2021/06/01 03:47:05;;;;;;;5.75;4.13;;;;;;;9.83;62.82;98971.16;5076045;28;20032;-92
2021/06/01 03:49:31;;;;;;;7.65;4.07;;;;;;;9.93;62.00;98955.91;5076537;28;20409;-93
2021/06/01 03:51:59;;;;;;;8.02;4.47;;;;;;;10.19;61.27;98968.59;5076513;28;20123;-91
2021/06/01 03:54:25;;;;;;;6.63;3.88;;;;;;;10.23;60.87;98978.25;5076499;28;20045;-93
2021/06/01 03:56:51;;;;;;;5.13;3.25;;;;;;;10.32;60.50;98974.56;5076560;28;20119;-92
2021/06/01 03:59:17;;;;;;;5.88;4.10;;;;;;;10.43;60.32;98976.09;5076405;28;20059;-91
2021/06/01 04:01:43;;;;;;;5.45;4.05;;;;;;;10.31;60.87;98984.31;5075740;28;20075;-92
2021/06/01 04:04:09;;;;;;;7.35;4.22;;;;;;;10.32;59.13;98994.03;5075928;28;20036;-92
2021/06/01 04:06:34;;;;;;;6.95;3.90;;;;;;;10.40;59.33;98986.75;5076119;28;20045;-92
2021/06/01 04:09:02;;;;;;;5.65;3.65;;;;;;;10.50;58.76;98981.25;5075957;28;20044;-92
2021/06/01 04:11:29;;;;;;;5.00;3.72;;;;;;;10.60;59.00;98974.78;5076059;28;20067;-92
2021/06/01 04:13:55;;;;;;;6.97;3.80;;;;;;;10.58;57.60;98969.53;5075975;28;20123;-92
2021/06/01 04:16:21;;;;;;;5.97;3.58;;;;;;;10.68;57.32;98975.50;5075372;28;20067;-92
2021/06/01 04:18:47;;;;;;;5.85;3.70;;;;;;;10.76;58.97;98981.50;5076112;28;20478;-91
2021/06/01 04:21:12;;;;;;;4.65;3.40;;;;;;;10.73;57.15;98968.25;5075910;28;20044;-91
2021/06/01 04:23:38;;;;;;;5.47;3.80;;;;;;;10.83;57.98;98988.41;5075513;28;20378;-92
2021/06/01 04:26:05;;;;;;;5.43;3.80;;;;;;;11.02;57.90;98991.50;5075712;28;20090;-95
2021/06/01 04:28:31;;;;;;;5.43;3.50;;;;;;;11.03;56.12;98981.72;5075832;28;20055;-91
2021/06/01 04:30:57;;;;;;;5.90;3.67;;;;;;;11.12;57.01;98976.16;5074834;28;20036;-92
2021/06/01 04:33:23;;;;;;;4.85;3.33;;;;;;;11.22;54.17;98979.47;5075846;28;20036;-91
2021/06/01 04:35:49;;;;;;;5.53;3.58;;;;;;;11.17;58.72;98992.00;5075455;28;20036;-92
2021/06/01 04:38:15;;;;;;;4.88;3.30;;;;;;;11.43;54.51;98980.69;5075769;28;20045;-92
2021/06/01 04:40:40;;;;;;;6.38;3.70;;;;;;;11.52;57.89;98988.41;5075460;28;20032;-94
2021/06/01 04:43:08;;;;;;;5.28;3.60;;;;;;;11.39;59.02;98985.22;5075130;28;20036;-92
2021/06/01 04:45:34;;;;;;;6.85;3.58;;;;;;;11.36;58.86;98998.59;5058320;28;20401;-91
2021/06/01 04:48:01;;;;;;;5.90;4.45;;;;;;;11.19;59.07;98988.41;5073630;28;20041;-92
2021/06/01 04:50:27;;;;;;;6.97;4.40;;;;;;;11.23;59.79;99000.72;5075198;28;20051;-92
2021/06/01 04:52:54;;;;;;;10.90;4.47;;;;;;;11.13;60.75;98993.03;5074949;28;20505;-93
2021/06/01 04:55:21;;;;;;;6.30;4.50;;;;;;;11.15;60.97;98994.72;5075397;28;20033;-93
2021/06/01 04:57:46;;;;;;;5.95;4.20;;;;;;;11.39;60.38;98977.22;5074919;28;20072;-92
2021/06/01 05:00:15;;;;;;;5.88;4.10;;;;;;;12.33;57.62;98996.72;5073398;28;20063;-91
2021/06/01 05:02:41;;;;;;;10.52;4.93;;;;;;;12.95;55.30;98981.47;5075035;28;20059;-94
2021/06/01 05:05:08;;;;;;;6.75;4.22;;;;;;;13.67;53.06;98983.44;5074586;28;20067;-89
2021/06/01 05:07:34;;;;;;;5.03;3.65;;;;;;;14.32;50.16;98976.56;5075010;28;20040;-93
2021/06/01 05:12:54;;;;;;;8.48;4.07;;;;;;;15.10;47.84;98973.41;5110788;27;20392;-94
2021/06/01 05:15:20;;;;;;;6.18;4.00;;;;;;;15.04;47.71;98978.16;5110805;28;20044;-92
2021/06/01 05:17:46;;;;;;;5.45;3.55;;;;;;;15.18;46.51;98975.78;5111889;28;20043;-93
2021/06/01 05:20:13;;;;;;;5.47;4.20;;;;;;;14.79;47.18;98980.03;5111919;28;20381;-93
2021/06/01 05:22:39;;;;;;;6.03;3.80;;;;;;;14.62;47.69;98985.22;5112314;28;20036;-91
2021/06/01 05:25:06;;;;;;;5.80;4.03;;;;;;;14.80;46.74;98983.59;5112211;28;20089;-93
2021/06/01 05:27:32;;;;;;;6.10;3.60;;;;;;;14.99;46.64;98973.84;5111704;28;20559;-93
2021/06/01 05:30:03;;;;;;;7.05;3.55;;;;;;;14.92;46.58;98969.69;5110642;28;20044;-94
2021/06/01 05:35:29;;;;;;;5.60;3.30;;;;;;;15.28;46.51;98985.13;5091767;27;20362;-94
2021/06/01 05:37:55;;;;;;;7.93;4.50;;;;;;;15.42;46.87;98992.59;5091852;28;20048;-94
2021/06/01 05:40:21;;;;;;;5.95;4.00;;;;;;;15.53;46.86;98978.75;5091622;28;20773;-94
2021/06/01 05:42:47;;;;;;;5.90;4.38;;;;;;;15.19;48.54;98972.16;5091428;28;20044;-93
2021/06/01 05:45:13;;;;;;;7.85;4.10;;;;;;;15.27;48.99;98970.00;5090719;28;20127;-93
2021/06/01 05:47:39;;;;;;;7.47;4.65;;;;;;;15.05;48.53;98974.53;5091203;28;20079;-93
2021/06/01 05:50:06;;;;;;;6.45;4.13;;;;;;;15.23;48.38;98976.44;5091053;28;20036;-92
2021/06/01 05:55:37;;;;;;;9.85;4.20;;;;;;;15.81;47.18;98973.06;5136262;27;20382;-93
2021/06/01 05:58:03;;;;;;;8.50;4.00;;;;;;;15.89;47.77;98976.22;5111912;28;20122;-91
2021/06/01 06:00:30;;;;;;;8.10;4.45;;;;;;;16.20;46.89;98982.88;5110415;28;20051;-91
2021/06/01 06:02:56;;;;;;;8.23;4.03;;;;;;;16.49;45.22;98975.28;5111500;28;20077;-92
2021/06/01 06:05:23;;;;;;;5.97;3.63;;;;;;;16.52;45.01;98959.00;5111810;28;20036;-91
2021/06/01 06:07:49;;;;;;;7.80;4.88;;;;;;;16.78;44.18;98968.47;5111527;28;20126;-92
2021/06/01 06:10:15;;;;;;;6.88;3.33;;;;;;;16.90;44.70;98954.47;5111227;28;20039;-91
2021/06/01 06:12:43;;;;;;;4.90;3.17;;;;;;;17.19;43.57;98960.19;5110125;28;20043;-91
2021/06/01 06:15:11;;;;;;;7.40;3.42;;;;;;;17.12;42.73;98956.09;5108763;28;20044;-91
2021/06/01 06:17:46;;;;;;;6.13;3.60;;;;;;;17.19;44.05;98946.75;5111083;28;20036;-91
2021/06/01 06:20:13;;;;;;;5.43;3.40;;;;;;;17.42;43.47;98972.47;5105660;28;20036;-91
2021/06/01 06:22:39;;;;;;;4.95;3.20;;;;;;;17.79;43.06;98959.75;5110636;28;20040;-90
2021/06/01 06:25:06;;;;;;;4.82;3.40;;;;;;;18.12;41.78;98965.16;5111544;28;20040;-90
2021/06/01 06:27:32;;;;;;;4.25;3.28;;;;;;;18.09;40.43;98945.63;5110728;28;20040;-91
2021/06/01 06:30:00;;;;;;;5.40;3.40;;;;;;;18.38;41.54;98963.72;5107930;28;20040;-89
2021/06/01 06:32:25;;;;;;;7.70;3.88;;;;;;;18.54;41.15;98957.47;5109970;28;20040;-89
2021/06/01 06:34:54;;;;;;;5.90;3.58;;;;;;;18.52;41.28;98949.50;5111631;28;20034;-91
2021/06/01 06:37:20;;;;;;;6.55;3.80;;;;;;;18.64;41.05;98939.81;5111410;27;20046;-90
2021/06/01 06:39:45;;;;;;;6.22;3.50;;;;;;;18.77;41.28;98967.78;5110231;28;20036;-91
2021/06/01 06:42:11;;;;;;;5.90;3.40;;;;;;;18.15;42.02;98956.03;5110219;28;20493;-91
2021/06/01 06:44:37;;;;;;;8.38;3.55;;;;;;;18.23;42.73;98962.75;5110485;28;20036;-91
2021/06/01 06:50:08;;;;;;;5.55;3.25;;;;;;;17.93;43.06;98954.50;5103240;27;20378;-92
2021/06/01 06:52:35;;;;;;;4.78;2.83;;;;;;;18.13;37.99;98950.75;5071787;28;20139;-91
2021/06/01 06:55:01;;;;;;;6.18;3.17;;;;;;;18.40;37.67;98947.47;5070993;28;20529;-90
2021/06/01 06:57:27;;;;;;;6.20;3.15;;;;;;;18.37;37.81;98944.97;5071341;28;20060;-92
2021/06/01 06:59:52;;;;;;;4.63;3.20;;;;;;;18.52;37.26;98953.97;5071594;28;20037;-90
2021/06/01 07:02:19;;;;;;;6.22;3.20;;;;;;;18.60;36.75;98949.91;5067939;28;20040;-92
2021/06/01 07:04:45;;;;;;;4.55;3.25;;;;;;;18.37;39.13;98934.19;5070119;28;20436;-92
2021/06/01 07:07:13;;;;;;;7.88;3.22;;;;;;;18.72;40.05;98936.72;5070018;28;20045;-91
2021/06/01 07:09:40;;;;;;;5.30;3.10;;;;;;;19.29;38.17;98918.94;5068685;28;20394;-92
2021/06/01 07:12:07;;;;;;;7.07;3.17;;;;;;;19.50;36.13;98932.94;5068696;28;20408;-90
2021/06/01 07:14:49;;;;;;;5.38;3.00;;;;;;;19.46;36.28;98931.41;5069842;28;20094;-90
2021/06/01 07:17:15;;;;;;;6.68;3.33;;;;;;;19.21;35.50;98936.53;5067521;28;20064;-91
2021/06/01 07:19:43;;;;;;;5.45;3.00;;;;;;;18.62;37.10;98931.81;5070859;28;20033;-92
2021/06/01 07:22:09;;;;;;;5.85;3.30;;;;;;;18.91;36.29;98929.31;5069857;28;20051;-92
2021/06/01 07:24:36;;;;;;;4.65;3.28;;;;;;;18.96;37.29;98929.06;5069973;28;20494;-90
2021/06/01 07:27:02;;;;;;;4.88;3.25;;;;;;;19.07;37.53;98934.66;5069710;28;20048;-90
2021/06/01 07:29:28;;;;;;;4.95;3.10;;;;;;;19.46;37.02;98926.00;5069389;28;20107;-92
2021/06/01 07:31:55;;;;;;;8.25;3.22;;;;;;;20.00;37.24;98932.63;5068694;28;20479;-91
2021/06/01 07:34:21;;;;;;;5.72;3.03;;;;;;;19.95;37.12;98916.75;5070484;28;20095;-94
2021/06/01 07:36:47;;;;;;;5.25;3.03;;;;;;;20.27;35.50;98925.47;5069738;28;20045;-90
2021/06/01 07:39:14;;;;;;;6.68;3.08;;;;;;;19.73;36.66;98919.03;5069788;28;20521;-91
2021/06/01 07:41:41;;;;;;;7.03;3.55;;;;;;;20.02;37.20;98911.81;5068785;28;20037;-91
2021/06/01 07:44:07;;;;;;;5.47;3.40;;;;;;;20.43;36.22;98928.06;5068816;28;20041;-90
2021/06/01 07:46:33;;;;;;;4.75;3.17;;;;;;;20.55;35.24;98909.31;5068857;28;20043;-93
2021/06/01 07:49:00;;;;;;;6.90;2.85;;;;;;;21.01;34.21;98925.19;5070086;28;20044;-92
2021/06/01 07:54:24;;;;;;;4.83;3.20;;;;;;;21.18;35.03;98914.09;5116355;27;1684433;-90
2021/06/01 07:56:50;;;;;;;4.85;3.03;;;;;;;21.57;33.95;98908.75;5174530;27;20284;-90
2021/06/01 07:59:16;;;;;;;5.78;2.90;;;;;;;21.67;33.16;98905.31;5171149;27;20039;-91
2021/06/01 08:01:43;;;;;;;4.47;3.03;;;;;;;21.93;32.65;98906.16;5174965;27;20030;-90
2021/06/01 08:04:09;;;;;;;5.45;3.08;;;;;;;22.18;33.38;98888.13;5173576;27;20129;-90
2021/06/01 08:06:37;;;;;;;4.65;2.90;;;;;;;22.40;30.38;98898.28;5173333;27;20439;-90
2021/06/01 08:09:03;;;;;;;4.55;2.80;;;;;;;22.44;30.95;98909.78;5174111;27;20031;-92
2021/06/01 08:11:30;;;;;;;4.90;3.10;;;;;;;22.42;31.45;98901.75;5174613;27;20051;-92
2021/06/01 08:13:56;;;;;;;9.07;3.10;;;;;;;22.25;31.66;98894.88;5170338;27;20031;-92
2021/06/01 08:16:22;;;;;;;3.72;2.88;;;;;;;22.37;29.93;98887.69;5172777;27;20046;-93
2021/06/01 08:24:46;;;;;;;5.07;2.88;;;;;;;22.18;28.29;98901.66;5132897;27;20375;-90
2021/06/01 08:27:12;;;;;;;3.65;2.70;;;;;;;22.10;29.88;98899.53;5132740;27;20081;-91
2021/06/01 08:29:38;;;;;;;4.10;2.85;;;;;;;22.45;30.78;98884.41;5133551;27;20047;-92
2021/06/01 08:32:05;;;;;;;3.58;2.78;;;;;;;22.00;27.47;98890.34;5132184;27;20089;-90
2021/06/01 08:34:31;;;;;;;4.60;2.70;;;;;;;21.25;28.16;98884.78;5132381;27;20122;-89
2021/06/01 08:36:57;;;;;;;4.43;2.85;;;;;;;21.59;28.05;98883.31;5134430;27;20054;-91
2021/06/01 08:39:25;;;;;;;3.50;2.50;;;;;;;22.27;27.12;98897.44;5133736;27;20484;-91
2021/06/01 08:41:53;;;;;;;3.88;2.40;;;;;;;22.62;27.12;98870.47;5130056;28;20043;-89
2021/06/01 08:44:20;;;;;;;4.63;2.80;;;;;;;21.97;26.56;98876.13;5132371;27;20092;-91
2021/06/01 08:46:49;;;;;;;3.75;2.50;;;;;;;22.28;26.75;98874.81;5130726;27;20043;-92
2021/06/01 08:49:16;;;;;;;4.57;2.70;;;;;;;22.89;26.02;98883.78;5131292;27;20100;-88
2021/06/01 08:51:43;;;;;;;3.40;2.40;;;;;;;23.15;26.14;98875.53;5132333;27;20084;-89
2021/06/01 08:54:09;;;;;;;4.97;2.55;;;;;;;23.50;25.88;98870.03;5132924;27;20035;-92
2021/06/01 08:56:35;;;;;;;4.45;2.63;;;;;;;23.57;24.77;98876.75;5136126;27;20035;-91
2021/06/01 08:59:03;;;;;;;4.57;2.65;;;;;;;23.91;24.43;98878.63;5132204;27;20101;-88
2021/06/01 09:01:29;;;;;;;4.13;2.77;;;;;;;24.10;24.23;98850.84;5128523;28;20044;-88
2021/06/01 09:03:58;;;;;;;5.00;2.67;;;;;;;22.82;25.67;98862.69;5132057;27;20417;-92
2021/06/01 09:21:29;;;;;;;3.30;2.28;;;;;;;23.95;23.41;98866.53;5072326;28;20118;-91
2021/06/01 09:23:57;;;;;;;4.30;2.80;;;;;;;24.41;21.99;98854.63;5071815;28;20040;-90
2021/06/01 09:26:54;;;;;;;6.63;2.70;;;;;;;24.60;22.65;98862.16;5069671;28;20132;-92
2021/06/01 09:29:21;;;;;;;4.47;2.65;;;;;;;24.10;21.40;98862.59;5070229;28;20043;-93
2021/06/01 09:32:05;;;;;;;3.17;2.35;;;;;;;23.81;22.33;98856.78;5068189;28;20091;-92
2021/06/01 09:34:35;;;;;;;3.50;2.58;;;;;;;23.51;23.71;98851.94;5071082;28;20049;-92
2021/06/01 09:37:17;;;;;;;3.38;2.38;;;;;;;24.03;22.49;98847.78;5071499;28;20079;-90
2021/06/01 09:39:43;;;;;;;3.17;2.40;;;;;;;24.29;22.21;98851.06;5071368;28;20120;-90
2021/06/01 09:42:25;;;;;;;3.50;2.53;;;;;;;23.75;22.38;98847.28;5071709;28;20044;-91
2021/06/01 09:45:02;;;;;;;5.18;2.80;;;;;;;23.64;22.91;98846.38;5066453;28;20032;-91
2021/06/01 09:47:41;;;;;;;4.53;2.58;;;;;;;24.19;24.47;98861.81;5070308;28;20044;-91
2021/06/01 09:50:11;;;;;;;4.35;2.88;;;;;;;24.47;22.12;98832.38;5073184;28;20421;-92
2021/06/01 09:52:46;;;;;;;4.00;2.95;;;;;;;24.38;22.36;98844.88;5070975;28;20138;-92
2021/06/01 09:55:24;;;;;;;5.35;2.70;;;;;;;23.19;22.86;98843.59;5068124;28;20056;-92
2021/06/01 09:57:51;;;;;;;4.63;3.35;;;;;;;23.44;23.70;98843.38;5073810;28;20049;-91
2021/06/01 10:00:19;;;;;;;4.95;2.50;;;;;;;23.94;24.22;98821.34;5070226;28;20037;-91
2021/06/01 10:02:50;;;;;;;3.63;2.90;;;;;;;24.27;24.19;98827.75;5073452;28;20112;-93
2021/06/01 10:05:19;;;;;;;4.43;3.10;;;;;;;24.36;23.32;98806.09;5071180;28;20529;-91
2021/06/01 10:07:48;;;;;;;4.40;2.58;;;;;;;24.74;22.82;98837.38;5071009;28;20138;-91
2021/06/01 10:10:19;;;;;;;4.82;3.38;;;;;;;24.88;21.62;98838.06;5071928;28;20041;-92
2021/06/01 10:12:47;;;;;;;4.97;3.15;;;;;;;24.14;23.07;98817.03;5072040;28;20041;-92
2021/06/01 10:15:14;;;;;;;3.95;3.03;;;;;;;23.45;24.24;98817.13;5071805;28;20044;-92
2021/06/01 10:17:40;;;;;;;5.30;2.90;;;;;;;23.53;23.72;98820.06;5073325;28;20432;-93
2021/06/01 10:20:08;;;;;;;3.97;3.00;;;;;;;23.72;23.93;98814.91;5071344;28;20120;-93
2021/06/01 10:22:37;;;;;;;5.65;3.20;;;;;;;23.93;23.31;98815.06;5073517;28;20448;-92
2021/06/01 10:25:09;;;;;;;5.00;2.90;;;;;;;23.99;23.40;98803.69;5083309;28;20047;-94
2021/06/01 10:27:35;;;;;;;4.75;2.72;;;;;;;24.28;22.34;98786.84;5073553;28;20049;-92
2021/06/01 10:30:04;;;;;;;4.60;3.10;;;;;;;23.95;22.62;98790.50;5067178;28;20029;-93
2021/06/01 10:32:34;;;;;;;5.97;3.20;;;;;;;23.81;23.72;98799.75;5060713;28;20045;-93
2021/06/01 10:35:01;;;;;;;6.35;3.10;;;;;;;23.59;23.92;98797.88;5058730;28;20029;-93
2021/06/01 10:52:12;;;;;;;4.55;3.00;;;;;;;23.36;22.87;98792.44;5111780;27;20387;-94
2021/06/01 10:54:55;;;;;;;5.47;3.00;;;;;;;23.98;24.85;98806.53;5123172;28;20040;-89
2021/06/01 10:57:21;;;;;;;4.25;2.75;;;;;;;24.39;23.47;98791.38;5120815;28;20046;-91
2021/06/01 11:03:05;;;;;;;5.45;3.10;;;;;;;24.82;21.64;98778.75;5147985;27;20492;-90
2021/06/01 11:05:40;;;;;;;4.68;2.90;;;;;;;25.06;22.52;98767.59;5143203;27;20059;-93
2021/06/01 11:11:27;;;;;;;7.43;3.50;;;;;;;25.11;21.09;98776.22;5091671;27;20378;-91
2021/06/01 11:13:54;;;;;;;5.40;2.95;;;;;;;24.86;21.77;98758.47;5091186;28;20048;-92
2021/06/01 11:16:21;;;;;;;5.95;3.20;;;;;;;23.71;21.88;98764.31;5094305;28;20090;-93
2021/06/01 11:18:55;;;;;;;5.78;3.13;;;;;;;24.34;22.91;98777.31;5095119;28;20063;-93
2021/06/01 11:21:28;;;;;;;5.32;3.00;;;;;;;24.58;22.41;98768.97;5088550;28;20043;-92
2021/06/01 11:33:17;;;;;;;5.22;3.15;;;;;;;25.16;21.37;98747.63;5100889;27;20804;-90
2021/06/01 11:35:47;;;;;;;5.25;3.05;;;;;;;25.27;21.01;98751.31;5068606;28;20419;-91
2021/06/01 11:44:13;;;;;;;6.00;3.15;;;;;;;25.19;20.24;98739.22;5104571;27;20400;-93
2021/06/01 11:53:29;;;;;;;5.60;3.10;;;;;;;24.46;21.73;98743.66;5178283;27;20374;-89
2021/06/01 11:56:02;;;;;;;5.28;3.13;;;;;;;24.59;21.90;98738.94;5149183;27;20035;-91
2021/06/01 12:13:51;;;;;;;5.25;3.38;;;;;;;24.89;22.96;98730.97;5090445;27;20675;-93
2021/06/01 12:19:17;;;;;;;6.38;3.22;;;;;;;24.66;22.25;98714.81;5094397;27;20379;-91
2021/06/01 12:24:45;;;;;;;6.55;3.13;;;;;;;24.73;23.23;98709.69;5144220;27;20398;-91
2021/06/01 12:33:15;;;;;;;4.47;2.90;;;;;;;25.75;21.30;98698.91;5148215;27;20404;-91
2021/06/01 12:44:42;;;;;;;5.45;2.97;;;;;;;26.00;20.52;98709.31;5091163;27;20903;-89
2021/06/01 13:20:26;;;;;;;6.97;3.20;;;;;;;26.26;19.25;98667.00;5090028;27;20375;-90
2021/06/01 13:23:12;;;;;;;5.88;3.22;;;;;;;26.30;18.83;98677.47;5086452;28;20051;-92
2021/06/01 13:46:36;;;;;;;4.07;3.05;;;;;;;25.71;18.71;98640.25;5087826;27;20355;-91
2021/06/01 13:49:11;;;;;;;4.60;3.03;;;;;;;25.31;18.91;98646.56;5092197;28;20041;-91
2021/06/01 14:21:56;;;;;;;5.13;2.38;;;;;;;26.25;17.30;98627.97;5111201;27;20365;-90
2021/06/01 15:24:47;;;;;;;4.80;2.70;;;;;;;26.25;18.03;98600.72;5112589;27;20353;-92
2021/06/01 17:07:05;;;;;;;3.97;2.70;;;;;;;23.77;23.28;98581.06;5112345;27;20357;-93
2021/06/01 17:12:44;;;;;;;3.85;2.60;;;;;;;23.67;24.70;98590.94;5110497;27;20385;-93
2021/06/01 17:15:12;;;;;;;4.22;2.70;;;;;;;23.55;25.65;98588.28;5106399;28;20404;-91
2021/06/01 17:17:45;;;;;;;5.05;2.70;;;;;;;23.46;25.74;98586.31;5111898;28;20038;-90
2021/06/01 17:35:14;;;;;;;4.55;2.80;;;;;;;22.58;30.78;98597.09;5132003;27;20391;-91
2021/06/01 17:37:40;;;;;;;4.53;2.50;;;;;;;22.38;29.77;98585.09;5116369;27;20043;-93
2021/06/01 17:40:10;;;;;;;4.93;2.72;;;;;;;22.13;29.70;98604.09;5118355;28;20396;-92
2021/06/01 17:42:43;;;;;;;4.30;2.60;;;;;;;21.88;30.38;98588.88;5122890;28;20073;-92
2021/06/01 17:45:15;;;;;;;6.28;2.78;;;;;;;21.52;32.21;98593.38;5118716;27;20956;-90
2021/06/01 17:47:48;;;;;;;4.85;2.58;;;;;;;21.46;31.57;98588.44;5114150;28;20063;-93
2021/06/01 17:50:16;;;;;;;5.38;2.70;;;;;;;21.35;31.35;98599.16;5118490;28;20036;-93
2021/06/01 17:52:43;;;;;;;5.35;2.67;;;;;;;21.26;30.94;98589.88;5116461;28;20126;-91
2021/06/01 17:55:15;;;;;;;5.07;2.70;;;;;;;21.17;31.30;98587.00;5107360;27;20047;-94
2021/06/01 17:57:43;;;;;;;6.25;2.90;;;;;;;20.86;31.62;98587.41;5113487;28;20075;-90
2021/06/01 18:00:12;;;;;;;5.00;3.00;;;;;;;20.92;32.56;98599.59;5116996;28;20040;-93
2021/06/01 18:02:38;;;;;;;5.00;3.00;;;;;;;20.72;32.92;98584.81;5117515;28;20047;-93
2021/06/01 18:05:09;;;;;;;5.22;3.03;;;;;;;20.67;33.10;98587.84;5121341;27;20043;-91
2021/06/01 18:07:43;;;;;;;5.03;2.67;;;;;;;20.67;33.90;98612.16;5108864;28;20047;-91